Sparks, Maryland
Current Conditions -  °F | °C
As of 7:15 AM on Monday 26 Jan 2015 (Local Time) from KDMW Reporting Station
Overcast Overcast  
Wind Chill: 21°   Ceiling: 900
Heat Index: 30°   Visibility: 10mi
Dew Point: 27°   Wind: 12mph
Humidity: 86%   Direction: 100°E
Pressure: 29.79"   Gusts: 16mph
Location:  39.5472°N, 76.6725°W
Report Text: KDMW 261215Z AUTO 10010G14KT 070V130 10SM BKN009 OVC020 M01/M03 A2979 RMK AO2
Loading
Personal Weather Stations






























Interactive Weather Map New forecast layout! Learn more

10-Day Weather Forecast

Advertisements
Track Severe Weather on mobile